Time;durP1;ratioP1;P1;durP2;ratioP2;P2;SDS_P1;SDS_P2;PMS_P1;PMS_P2;Temp;Humidity;BMP_temperature;BMP_pressure;BME280_temperature;BME280_humidity;BME280_pressure;Samples;Min_cycle;Max_cycle;Signal;HPM_P1;HPM_P2
2022/11/27 00:00:21;;;;;;;49.23;6.93;;;0.70;99.90;;;;;;5009881;28;20190;-57
2022/11/27 00:02:47;;;;;;;63.60;7.30;;;0.70;99.90;;;;;;4992734;28;20211;-58
2022/11/27 00:05:13;;;;;;;72.33;7.80;;;0.60;99.90;;;;;;5004430;28;20511;-57
2022/11/27 00:07:38;;;;;;;28.80;6.60;;;0.60;99.90;;;;;;4989792;28;20237;-58
2022/11/27 00:10:06;;;;;;;37.67;7.30;;;0.60;99.90;;;;;;5006846;28;20194;-58
2022/11/27 00:12:31;;;;;;;38.70;6.33;;;0.50;99.90;;;;;;5005978;28;20610;-57
2022/11/27 00:14:57;;;;;;;62.10;7.83;;;0.50;99.90;;;;;;5007411;28;20432;-57
2022/11/27 00:17:23;;;;;;;77.13;7.27;;;0.50;99.90;;;;;;5010344;28;20245;-58
2022/11/27 00:19:49;;;;;;;48.93;7.40;;;0.50;99.90;;;;;;5007383;28;20179;-58
2022/11/27 00:22:15;;;;;;;59.00;7.70;;;0.40;99.90;;;;;;5005638;28;20431;-57
2022/11/27 00:24:42;;;;;;;95.90;10.10;;;0.40;99.90;;;;;;5006561;28;20212;-58
2022/11/27 00:27:08;;;;;;;36.63;7.43;;;0.40;99.90;;;;;;5005695;28;20199;-58
2022/11/27 00:29:34;;;;;;;137.07;9.67;;;0.40;99.90;;;;;;5006778;28;20587;-58
2022/11/27 00:31:59;;;;;;;70.97;7.27;;;0.40;99.90;;;;;;5009504;28;20652;-59
2022/11/27 00:34:25;;;;;;;54.50;7.37;;;0.40;99.90;;;;;;5019863;28;20184;-58
2022/11/27 00:36:51;;;;;;;62.40;8.23;;;0.40;99.90;;;;;;5030029;28;20255;-58
2022/11/27 00:39:17;;;;;;;52.20;7.37;;;0.40;99.90;;;;;;5031536;28;20179;-63
2022/11/27 00:41:42;;;;;;;78.67;7.80;;;0.30;99.90;;;;;;5031992;28;20175;-58
2022/11/27 00:44:08;;;;;;;54.93;7.00;;;0.30;99.90;;;;;;5012925;28;20429;-58
2022/11/27 00:46:34;;;;;;;81.97;9.80;;;0.20;99.90;;;;;;5013356;28;20593;-58
2022/11/27 00:49:02;;;;;;;46.27;6.80;;;0.20;99.90;;;;;;5018249;28;20173;-57
2022/11/27 00:51:28;;;;;;;126.10;9.20;;;0.20;99.90;;;;;;5007912;28;20437;-57
2022/11/27 00:53:54;;;;;;;149.73;11.47;;;0.20;99.90;;;;;;5013139;28;20433;-57
2022/11/27 00:56:24;;;;;;;30.57;5.40;;;0.20;99.90;;;;;;5008064;28;20442;-58
2022/11/27 00:58:50;;;;;;;60.67;6.97;;;0.20;99.90;;;;;;5009357;28;20436;-57
2022/11/27 01:01:19;;;;;;;52.43;6.40;;;0.20;99.90;;;;;;5009311;28;20444;-58
2022/11/27 01:03:46;;;;;;;68.10;7.63;;;0.20;99.90;;;;;;5008790;28;20966;-58
2022/11/27 01:06:12;;;;;;;50.57;7.33;;;0.20;99.90;;;;;;5010726;28;20841;-57
2022/11/27 01:08:39;;;;;;;8.10;4.90;;;0.20;99.90;;;;;;5013727;28;20469;-58
2022/11/27 01:11:05;;;;;;;21.83;5.07;;;0.10;99.90;;;;;;5015493;28;20438;-59
2022/11/27 01:13:34;;;;;;;60.73;6.23;;;0.10;99.90;;;;;;5011160;28;20464;-58
2022/11/27 01:16:07;;;;;;;56.37;7.03;;;0.10;99.90;;;;;;5011299;28;20454;-58
2022/11/27 01:18:34;;;;;;;24.37;5.53;;;0.10;99.90;;;;;;5007955;28;20429;-58
2022/11/27 01:21:00;;;;;;;39.97;6.00;;;0.10;99.90;;;;;;5007099;28;20482;-57
2022/11/27 01:23:25;;;;;;;21.27;5.73;;;0.10;99.90;;;;;;5011149;28;20953;-57
2022/11/27 01:25:54;;;;;;;44.77;5.93;;;0.10;99.90;;;;;;5011288;28;20622;-59
2022/11/27 01:28:22;;;;;;;46.57;7.20;;;0.10;99.90;;;;;;5011710;28;20183;-57
2022/11/27 01:30:48;;;;;;;58.93;7.20;;;0.10;99.90;;;;;;5011310;28;20433;-58
2022/11/27 01:33:13;;;;;;;30.63;6.03;;;0.10;99.90;;;;;;5008521;28;20610;-58
2022/11/27 01:35:39;;;;;;;66.87;7.70;;;0.00;99.90;;;;;;5007330;28;20472;-58
2022/11/27 01:38:04;;;;;;;91.27;7.67;;;0.10;99.90;;;;;;5011911;28;20174;-58
2022/11/27 01:40:30;;;;;;;82.03;10.17;;;0.10;99.90;;;;;;5010405;28;20670;-58
2022/11/27 01:42:56;;;;;;;65.23;6.90;;;0.10;99.90;;;;;;5007037;28;20802;-57
2022/11/27 01:45:22;;;;;;;120.97;9.43;;;0.00;99.90;;;;;;5009160;28;20541;-57
2022/11/27 01:47:57;;;;;;;85.37;9.13;;;-0.10;99.90;;;;;;5011908;28;20201;-58
2022/11/27 01:50:32;;;;;;;109.47;9.43;;;-0.10;99.90;;;;;;5007934;28;20421;-58
2022/11/27 01:53:09;;;;;;;96.90;8.20;;;-0.10;99.90;;;;;;5006589;28;20516;-57
2022/11/27 01:55:49;;;;;;;123.13;10.07;;;-0.10;99.90;;;;;;5013218;28;20442;-56
2022/11/27 01:58:23;;;;;;;158.83;9.60;;;-0.10;99.90;;;;;;5010058;28;20456;-58
2022/11/27 02:00:49;;;;;;;67.97;6.50;;;-0.10;99.90;;;;;;5010455;28;20488;-57
2022/11/27 02:03:15;;;;;;;21.17;5.70;;;-0.10;99.90;;;;;;5008478;28;20445;-57
2022/11/27 02:05:41;;;;;;;64.00;6.60;;;-0.10;99.90;;;;;;5011662;28;20205;-59
2022/11/27 02:08:09;;;;;;;170.60;10.10;;;-0.20;99.90;;;;;;5008842;28;20430;-58
2022/11/27 02:11:01;;;;;;;73.20;12.23;;;-0.20;99.90;;;;;;5008056;28;20182;-60
2022/11/27 02:13:36;;;;;;;92.97;7.00;;;-0.10;99.90;;;;;;5009102;28;20493;-59
2022/11/27 02:16:16;;;;;;;32.03;5.90;;;-0.20;99.90;;;;;;5007532;28;20536;-59
2022/11/27 02:18:54;;;;;;;49.23;5.83;;;-0.10;99.90;;;;;;5003829;28;20445;-59
2022/11/27 02:21:35;;;;;;;47.90;6.60;;;-0.10;99.90;;;;;;5006073;28;20440;-59
2022/11/27 02:24:47;;;;;;;61.83;6.43;;;-0.10;99.90;;;;;;5008201;28;20840;-59
2022/11/27 02:27:45;;;;;;;127.53;9.37;;;-0.10;99.90;;;;;;4945423;28;20471;-59
2022/11/27 02:30:12;;;;;;;95.43;8.30;;;-0.10;99.90;;;;;;4905446;28;20475;-58
2022/11/27 02:32:56;;;;;;;78.63;6.87;;;-0.20;99.90;;;;;;4993147;28;20441;-59
2022/11/27 02:35:45;;;;;;;49.27;7.10;;;-0.20;99.90;;;;;;5002309;28;21027;-60
2022/11/27 02:38:21;;;;;;;22.63;5.30;;;-0.20;99.90;;;;;;5005023;28;21661;-58
2022/11/27 02:40:57;;;;;;;18.87;4.83;;;-0.20;99.90;;;;;;5010995;28;20449;-58
2022/11/27 02:43:36;;;;;;;102.00;8.23;;;-0.20;99.90;;;;;;5004215;28;20818;-59
2022/11/27 02:46:05;;;;;;;79.67;7.63;;;-0.20;99.90;;;;;;5001125;28;20469;-59
2022/11/27 02:48:37;;;;;;;113.40;8.53;;;-0.20;99.90;;;;;;5009262;28;20425;-60
2022/11/27 02:51:04;;;;;;;65.93;6.70;;;-0.30;99.90;;;;;;5005685;28;20429;-59
2022/11/27 02:53:36;;;;;;;87.93;7.40;;;-0.30;99.90;;;;;;5007029;28;20427;-59
2022/11/27 02:56:07;;;;;;;60.23;5.93;;;-0.30;99.90;;;;;;5009280;28;20869;-59
2022/11/27 02:58:35;;;;;;;98.37;9.17;;;-0.30;99.90;;;;;;5008084;28;20480;-60
2022/11/27 03:01:04;;;;;;;37.93;6.50;;;-0.30;99.90;;;;;;5009250;28;20437;-58
2022/11/27 03:03:40;;;;;;;18.33;5.17;;;-0.30;99.90;;;;;;5015856;28;20952;-57
2022/11/27 03:06:10;;;;;;;105.63;7.93;;;-0.30;99.90;;;;;;5002020;28;20461;-59
2022/11/27 03:08:49;;;;;;;143.27;10.30;;;-0.30;99.90;;;;;;5009055;28;20488;-59
2022/11/27 03:11:15;;;;;;;54.73;5.60;;;-0.30;99.90;;;;;;5009337;28;20495;-59
2022/11/27 03:13:52;;;;;;;54.63;5.90;;;-0.30;99.90;;;;;;5003958;28;21019;-59
2022/11/27 03:16:39;;;;;;;46.43;6.47;;;-0.40;99.90;;;;;;5007252;28;20515;-59
2022/11/27 03:19:16;;;;;;;145.27;9.30;;;-0.40;99.90;;;;;;5005825;28;20445;-57
2022/11/27 03:21:44;;;;;;;98.00;6.97;;;-0.40;99.90;;;;;;5020330;28;20441;-58
2022/11/27 03:24:10;;;;;;;71.97;7.50;;;-0.40;99.90;;;;;;5016777;28;20433;-58
2022/11/27 03:26:38;;;;;;;100.87;8.53;;;-0.50;99.90;;;;;;5019465;28;20473;-58
2022/11/27 03:29:08;;;;;;;71.90;6.50;;;-0.50;99.90;;;;;;5023277;28;20441;-57
2022/11/27 03:31:34;;;;;;;79.43;6.23;;;-0.50;99.90;;;;;;4989722;28;20435;-57
2022/11/27 03:34:00;;;;;;;84.63;7.00;;;-0.50;99.90;;;;;;5006214;28;20429;-57
2022/11/27 03:36:26;;;;;;;80.47;6.30;;;-0.50;99.90;;;;;;5006330;28;20499;-57
2022/11/27 03:38:54;;;;;;;182.03;8.30;;;-0.60;99.90;;;;;;5004867;28;20440;-58
2022/11/27 03:41:19;;;;;;;63.23;6.30;;;-0.60;99.90;;;;;;5003174;28;20193;-57
2022/11/27 03:44:03;;;;;;;42.37;6.70;;;-0.60;99.90;;;;;;5004535;28;20438;-58
2022/11/27 03:46:56;;;;;;;58.73;5.13;;;-0.70;99.90;;;;;;5004683;28;20287;-59
2022/11/27 03:49:46;;;;;;;48.97;5.60;;;-0.60;99.90;;;;;;5005135;28;20437;-58
2022/11/27 03:52:22;;;;;;;43.57;5.57;;;-0.60;99.90;;;;;;5014644;28;20417;-58
2022/11/27 03:55:00;;;;;;;20.80;4.20;;;-0.70;99.90;;;;;;5023347;28;20428;-58
2022/11/27 03:58:00;;;;;;;44.00;6.93;;;-0.70;99.90;;;;;;5028100;28;20491;-58
2022/11/27 04:00:33;;;;;;;77.20;7.73;;;-0.70;99.90;;;;;;5016919;28;20433;-58
2022/11/27 04:03:01;;;;;;;66.77;7.03;;;-0.70;99.90;;;;;;5017489;28;20533;-58
2022/11/27 04:05:26;;;;;;;77.00;7.00;;;-0.70;99.90;;;;;;4992430;28;20477;-58
2022/11/27 04:07:52;;;;;;;20.60;5.23;;;-0.70;99.90;;;;;;5010564;28;20472;-58
2022/11/27 04:10:18;;;;;;;106.57;7.03;;;-0.70;99.90;;;;;;5011707;28;20266;-57
2022/11/27 04:12:43;;;;;;;76.87;8.73;;;-0.70;99.90;;;;;;5010052;28;20178;-57
2022/11/27 04:15:10;;;;;;;43.63;5.57;;;-0.80;99.90;;;;;;5005010;28;20185;-57
2022/11/27 04:17:35;;;;;;;34.47;5.90;;;-0.80;99.90;;;;;;5011878;28;20244;-58
2022/11/27 04:20:02;;;;;;;90.17;6.53;;;-0.80;99.90;;;;;;5006306;28;20497;-58
2022/11/27 04:22:27;;;;;;;78.70;6.47;;;-0.80;99.90;;;;;;5011717;28;20670;-57
2022/11/27 04:24:53;;;;;;;85.93;6.50;;;-0.80;99.90;;;;;;5009261;28;20437;-58
2022/11/27 04:27:19;;;;;;;71.93;6.40;;;-0.80;99.90;;;;;;5012671;28;20198;-58
2022/11/27 04:29:44;;;;;;;46.37;5.87;;;-0.80;99.90;;;;;;5019345;28;20205;-58
2022/11/27 04:32:10;;;;;;;51.73;6.00;;;-0.80;99.90;;;;;;5010765;28;20174;-58
2022/11/27 04:34:35;;;;;;;67.23;8.40;;;-0.80;99.90;;;;;;5025106;28;20236;-58
2022/11/27 04:37:01;;;;;;;58.97;5.77;;;-0.80;99.90;;;;;;5018738;28;20194;-58
2022/11/27 04:39:26;;;;;;;29.73;4.60;;;-0.80;99.90;;;;;;5015858;28;20248;-58
2022/11/27 04:41:52;;;;;;;63.97;7.70;;;-0.80;99.90;;;;;;5009510;28;20313;-58
2022/11/27 04:44:18;;;;;;;20.63;4.73;;;-0.80;99.90;;;;;;5003067;28;20253;-57
2022/11/27 04:46:43;;;;;;;30.60;4.67;;;-0.80;99.90;;;;;;5018347;28;20208;-58
2022/11/27 04:49:10;;;;;;;53.23;5.60;;;-0.80;99.90;;;;;;5025464;28;20191;-58
2022/11/27 04:51:35;;;;;;;119.10;6.70;;;-0.70;99.90;;;;;;5026265;28;20195;-58
2022/11/27 04:54:01;;;;;;;68.77;5.57;;;-0.70;99.90;;;;;;5015752;28;21546;-62
2022/11/27 04:56:27;;;;;;;65.13;5.47;;;-0.70;99.90;;;;;;5025306;28;20206;-58
2022/11/27 04:58:52;;;;;;;42.93;6.00;;;-0.70;99.90;;;;;;5038085;22;20495;-57
2022/11/27 05:01:18;;;;;;;103.97;8.23;;;-0.80;99.90;;;;;;5024586;28;20182;-60
2022/11/27 05:03:46;;;;;;;39.17;5.50;;;-0.70;99.90;;;;;;5029647;28;20257;-60
2022/11/27 05:06:11;;;;;;;52.60;6.00;;;-0.80;99.90;;;;;;5022847;28;20201;-59
2022/11/27 05:08:37;;;;;;;11.07;4.93;;;-0.70;99.90;;;;;;5026907;28;20467;-59
2022/11/27 05:11:10;;;;;;;73.87;8.80;;;-0.80;99.90;;;;;;5027966;28;20182;-59
2022/11/27 05:13:36;;;;;;;18.10;4.33;;;-0.70;99.90;;;;;;5027428;28;20185;-59
2022/11/27 05:16:02;;;;;;;83.00;6.33;;;-0.80;99.90;;;;;;5027817;28;20769;-59
2022/11/27 05:18:28;;;;;;;9.47;4.20;;;-0.80;99.90;;;;;;5025708;28;20452;-58
2022/11/27 05:20:58;;;;;;;30.67;5.30;;;-0.80;99.90;;;;;;5024495;28;20519;-58
2022/11/27 05:23:25;;;;;;;6.50;4.50;;;-0.80;99.90;;;;;;5016590;28;20336;-58
2022/11/27 05:25:50;;;;;;;62.87;7.40;;;-0.80;99.90;;;;;;5027881;28;20460;-58
2022/11/27 05:28:16;;;;;;;51.87;6.40;;;-0.70;99.90;;;;;;5028925;28;20448;-58
2022/11/27 05:30:42;;;;;;;146.43;9.00;;;-0.70;99.90;;;;;;5025581;28;20182;-58
2022/11/27 05:33:08;;;;;;;62.63;7.77;;;-0.80;99.90;;;;;;5034144;28;20169;-58
2022/11/27 05:35:33;;;;;;;14.80;5.20;;;-0.80;99.90;;;;;;5026890;28;20998;-59
2022/11/27 05:37:59;;;;;;;26.63;6.07;;;-0.80;99.90;;;;;;5026665;28;20196;-58
2022/11/27 05:40:24;;;;;;;212.17;10.77;;;-0.80;99.90;;;;;;5025648;28;20654;-59
2022/11/27 05:42:50;;;;;;;146.47;9.87;;;-0.80;99.90;;;;;;5026684;28;20213;-59
2022/11/27 05:45:16;;;;;;;59.23;7.57;;;-0.80;99.90;;;;;;5001961;28;20205;-59
2022/11/27 05:47:41;;;;;;;53.90;5.90;;;-0.90;99.90;;;;;;5027442;28;20203;-58
2022/11/27 05:50:07;;;;;;;29.90;6.47;;;-0.90;99.90;;;;;;5030859;28;20273;-59
2022/11/27 05:52:33;;;;;;;131.03;8.83;;;-0.90;99.90;;;;;;5023091;28;20178;-58
2022/11/27 05:54:59;;;;;;;36.57;5.40;;;-0.90;99.90;;;;;;5025321;28;20429;-58
2022/11/27 05:57:25;;;;;;;75.87;7.80;;;-0.90;99.90;;;;;;5026353;28;20205;-59
2022/11/27 05:59:50;;;;;;;46.80;6.60;;;-0.90;99.90;;;;;;5026068;28;20753;-59
2022/11/27 06:02:16;;;;;;;103.30;10.27;;;-0.90;99.90;;;;;;5026326;28;20443;-59
2022/11/27 06:04:41;;;;;;;63.23;7.60;;;-0.90;99.90;;;;;;5020949;28;20316;-59
2022/11/27 06:07:07;;;;;;;61.77;7.77;;;-0.90;99.90;;;;;;5023102;28;20748;-59
2022/11/27 06:09:33;;;;;;;47.53;6.77;;;-0.90;99.90;;;;;;5024095;28;20200;-59
2022/11/27 06:11:59;;;;;;;69.70;7.90;;;-1.00;99.90;;;;;;5023630;28;20175;-59
2022/11/27 06:14:24;;;;;;;49.70;7.30;;;-1.00;99.90;;;;;;5019809;28;20182;-59
2022/11/27 06:16:50;;;;;;;27.30;5.17;;;-0.90;99.90;;;;;;5027663;28;20436;-59
2022/11/27 06:19:16;;;;;;;85.97;7.17;;;-0.90;99.90;;;;;;5012073;28;20294;-59
2022/11/27 06:21:41;;;;;;;100.30;8.80;;;-0.90;99.90;;;;;;5025173;28;20596;-58
2022/11/27 06:24:07;;;;;;;77.70;7.10;;;-0.90;99.90;;;;;;5028315;28;20205;-58
2022/11/27 06:26:33;;;;;;;11.10;4.37;;;-1.00;99.90;;;;;;5026666;28;20209;-58
2022/11/27 06:29:00;;;;;;;36.33;5.80;;;-1.00;99.90;;;;;;5023113;28;20198;-58
2022/11/27 06:31:29;;;;;;;46.43;6.30;;;-1.00;99.90;;;;;;5009229;28;20524;-58
2022/11/27 06:33:56;;;;;;;106.83;8.07;;;-0.90;99.90;;;;;;5026670;28;20461;-59
2022/11/27 06:36:25;;;;;;;10.43;5.00;;;-0.90;99.90;;;;;;5025547;28;20433;-58
2022/11/27 06:38:51;;;;;;;39.27;6.73;;;-0.90;99.90;;;;;;5018195;28;20550;-58
2022/11/27 06:41:19;;;;;;;27.20;7.00;;;-0.90;99.90;;;;;;5027207;28;21011;-59
2022/11/27 06:43:44;;;;;;;45.00;7.37;;;-0.90;99.90;;;;;;5017519;28;20201;-57
2022/11/27 06:46:16;;;;;;;37.53;7.20;;;-0.90;99.90;;;;;;5017924;28;20457;-58
2022/11/27 06:48:43;;;;;;;14.30;6.10;;;-0.90;99.90;;;;;;5008510;28;20228;-58
2022/11/27 06:51:12;;;;;;;34.40;6.07;;;-0.90;99.90;;;;;;5030467;28;20440;-58
2022/11/27 06:53:38;;;;;;;25.43;5.57;;;-0.90;99.90;;;;;;5025401;28;20483;-58
2022/11/27 06:56:07;;;;;;;19.40;4.40;;;-0.90;99.90;;;;;;5025519;28;21024;-58
2022/11/27 06:58:33;;;;;;;7.60;4.37;;;-0.90;99.90;;;;;;5020499;28;20487;-57
2022/11/27 07:01:00;;;;;;;17.60;5.00;;;-1.00;99.90;;;;;;5021600;28;20476;-57
2022/11/27 07:03:25;;;;;;;30.93;6.20;;;-0.90;99.90;;;;;;5021461;28;20194;-58
2022/11/27 07:05:51;;;;;;;28.00;5.60;;;-0.90;99.90;;;;;;5015265;28;20845;-58
2022/11/27 07:08:17;;;;;;;14.70;4.33;;;-1.00;99.90;;;;;;5025153;28;20208;-58
2022/11/27 07:10:42;;;;;;;57.70;6.20;;;-0.90;99.90;;;;;;5023271;28;20193;-58
2022/11/27 07:13:08;;;;;;;30.37;5.20;;;-0.90;99.90;;;;;;5020901;28;20179;-59
2022/11/27 07:15:34;;;;;;;17.30;5.13;;;-0.90;99.90;;;;;;5009886;28;20730;-58
2022/11/27 07:18:00;;;;;;;9.83;4.20;;;-1.00;99.90;;;;;;5021271;28;20236;-58
2022/11/27 07:20:26;;;;;;;26.60;5.10;;;-1.00;99.90;;;;;;5011244;28;20817;-59
2022/11/27 07:22:51;;;;;;;11.03;6.10;;;-1.00;99.90;;;;;;5023066;28;20467;-58
2022/11/27 07:25:17;;;;;;;9.37;5.40;;;-1.00;99.90;;;;;;5023699;28;20201;-59
2022/11/27 07:27:43;;;;;;;44.10;7.77;;;-1.00;99.90;;;;;;5023597;28;20585;-59
2022/11/27 07:30:09;;;;;;;16.43;6.00;;;-1.00;99.90;;;;;;5027525;28;20182;-59
2022/11/27 07:32:35;;;;;;;9.13;5.50;;;-1.00;99.90;;;;;;5028867;28;20225;-60
2022/11/27 07:35:00;;;;;;;8.03;5.20;;;-1.00;99.90;;;;;;5015913;28;20428;-58
2022/11/27 07:37:30;;;;;;;6.10;4.17;;;-0.90;99.90;;;;;;5020759;28;20170;-58
2022/11/27 07:39:56;;;;;;;9.80;5.23;;;-0.90;99.90;;;;;;5013177;28;20598;-57
2022/11/27 07:42:21;;;;;;;8.13;5.40;;;-0.80;99.90;;;;;;5012459;28;20435;-59
2022/11/27 07:44:47;;;;;;;11.37;6.30;;;-0.80;99.90;;;;;;5012931;28;20175;-57
2022/11/27 07:47:12;;;;;;;19.10;5.57;;;-0.80;99.90;;;;;;5018800;28;20197;-59
2022/11/27 07:49:38;;;;;;;11.70;5.60;;;-0.70;99.90;;;;;;5024425;28;20289;-57
2022/11/27 07:52:04;;;;;;;11.27;7.00;;;-0.70;99.90;;;;;;5027136;28;20688;-59
2022/11/27 07:54:29;;;;;;;7.60;4.43;;;-0.70;99.90;;;;;;5022320;28;20300;-58
2022/11/27 07:56:55;;;;;;;10.80;5.33;;;-0.70;99.90;;;;;;5005720;28;20181;-59
2022/11/27 07:59:21;;;;;;;8.43;5.13;;;-0.70;99.90;;;;;;5015906;28;20714;-58
2022/11/27 08:01:46;;;;;;;8.10;5.27;;;-0.60;99.90;;;;;;5022979;28;20176;-59
2022/11/27 08:04:12;;;;;;;11.63;5.27;;;-0.60;99.90;;;;;;5023303;28;21903;-60
2022/11/27 08:06:38;;;;;;;8.90;5.40;;;-0.50;99.90;;;;;;5027300;28;20225;-59
2022/11/27 08:09:03;;;;;;;9.20;6.37;;;-0.40;99.90;;;;;;5022420;28;20193;-60
2022/11/27 08:11:34;;;;;;;10.13;5.87;;;-0.30;99.90;;;;;;5024720;28;20189;-59
2022/11/27 08:14:02;;;;;;;12.90;7.40;;;-0.30;99.90;;;;;;5030371;28;20573;-60
2022/11/27 08:16:28;;;;;;;14.87;8.80;;;-0.20;99.90;;;;;;5027821;28;20813;-60
2022/11/27 08:18:54;;;;;;;10.83;6.17;;;-0.20;99.90;;;;;;5025394;28;20532;-60
2022/11/27 08:21:20;;;;;;;9.80;6.07;;;-0.20;99.90;;;;;;5025269;28;20534;-60
2022/11/27 08:23:45;;;;;;;9.90;6.00;;;-0.10;99.90;;;;;;5027407;28;20674;-59
2022/11/27 08:26:12;;;;;;;10.10;5.43;;;-0.10;99.90;;;;;;5021126;28;20211;-59
2022/11/27 08:28:38;;;;;;;10.27;6.13;;;0.00;99.90;;;;;;5030792;28;20201;-59
2022/11/27 08:31:05;;;;;;;9.03;5.80;;;0.00;99.90;;;;;;5014235;28;20432;-59
2022/11/27 08:33:32;;;;;;;7.80;5.97;;;0.00;99.90;;;;;;5029940;28;20437;-60
2022/11/27 08:35:58;;;;;;;8.53;6.63;;;0.10;99.90;;;;;;5019720;28;20563;-59
2022/11/27 08:38:25;;;;;;;9.23;5.80;;;0.10;99.90;;;;;;5022698;28;20501;-60
2022/11/27 08:41:01;;;;;;;11.03;6.53;;;0.20;99.90;;;;;;5022749;28;21006;-57
2022/11/27 08:43:28;;;;;;;10.90;5.83;;;0.20;99.90;;;;;;5004830;28;20445;-59
2022/11/27 08:45:54;;;;;;;15.37;8.87;;;0.20;99.90;;;;;;5005606;28;21160;-57
2022/11/27 08:48:20;;;;;;;11.20;7.10;;;0.30;99.90;;;;;;5019973;28;20554;-57
2022/11/27 08:50:47;;;;;;;12.33;6.97;;;0.40;99.90;;;;;;5025351;28;20430;-55
2022/11/27 08:53:13;;;;;;;13.10;8.23;;;0.40;99.90;;;;;;5009443;28;20423;-58
2022/11/27 08:55:39;;;;;;;9.07;5.37;;;0.50;99.90;;;;;;5025023;28;20425;-54
2022/11/27 08:58:04;;;;;;;9.20;5.83;;;0.50;99.90;;;;;;5024700;28;20467;-55
2022/11/27 09:00:31;;;;;;;11.40;7.80;;;0.50;99.90;;;;;;5025210;28;20567;-56
2022/11/27 09:02:58;;;;;;;15.77;9.73;;;0.50;99.90;;;;;;5027232;28;20176;-56
2022/11/27 09:05:25;;;;;;;24.43;14.53;;;0.60;99.90;;;;;;5024625;28;20457;-57
2022/11/27 09:07:50;;;;;;;21.13;12.47;;;0.70;99.90;;;;;;5025596;28;21147;-55
2022/11/27 09:10:16;;;;;;;17.27;11.43;;;0.70;99.90;;;;;;5010745;28;20422;-55
2022/11/27 09:12:43;;;;;;;25.67;19.73;;;0.80;99.90;;;;;;5008461;28;20247;-56
2022/11/27 09:15:10;;;;;;;9.83;7.67;;;0.80;99.90;;;;;;5025486;28;20186;-54
2022/11/27 09:17:36;;;;;;;14.27;9.47;;;0.90;99.90;;;;;;5028088;28;20436;-55
2022/11/27 09:20:02;;;;;;;10.63;7.40;;;0.90;99.90;;;;;;5010130;28;20429;-58
2022/11/27 09:22:28;;;;;;;14.70;8.23;;;1.00;99.90;;;;;;5029408;28;20255;-59
2022/11/27 09:24:53;;;;;;;13.77;8.67;;;1.00;99.90;;;;;;5009628;28;20560;-59
2022/11/27 09:27:19;;;;;;;9.30;7.13;;;1.00;99.90;;;;;;5024340;28;20665;-59
2022/11/27 09:29:45;;;;;;;9.97;6.90;;;1.10;99.90;;;;;;5032079;28;20328;-59
2022/11/27 09:32:11;;;;;;;8.60;6.20;;;1.10;99.90;;;;;;5028580;28;20257;-59
2022/11/27 09:34:36;;;;;;;7.10;5.53;;;1.20;99.90;;;;;;5015861;28;20481;-59
2022/11/27 09:37:03;;;;;;;7.60;4.90;;;1.30;99.90;;;;;;5024377;28;20190;-59
2022/11/27 09:39:32;;;;;;;11.03;5.77;;;1.40;99.90;;;;;;5018600;28;20517;-60
2022/11/27 09:42:00;;;;;;;10.43;5.70;;;1.60;99.90;;;;;;5024189;28;20456;-59
2022/11/27 09:44:41;;;;;;;10.13;6.20;;;1.60;99.90;;;;;;5021476;28;20544;-59
2022/11/27 09:47:31;;;;;;;10.80;6.53;;;1.70;99.90;;;;;;5020266;28;20456;-59
2022/11/27 09:50:01;;;;;;;7.70;6.00;;;1.80;99.90;;;;;;5020840;28;20514;-59
2022/11/27 09:52:49;;;;;;;10.53;7.13;;;1.90;99.90;;;;;;5006066;28;20430;-60
2022/11/27 09:55:57;;;;;;;9.67;6.47;;;1.90;99.90;;;;;;5025606;28;20438;-59
2022/11/27 09:58:46;;;;;;;12.77;6.80;;;1.90;99.90;;;;;;5026984;28;20561;-57
2022/11/27 10:01:17;;;;;;;11.30;6.80;;;2.00;99.90;;;;;;5037940;28;20496;-57
2022/11/27 10:03:44;;;;;;;11.50;6.80;;;2.10;99.90;;;;;;5036773;28;20430;-59
2022/11/27 10:06:34;;;;;;;9.33;5.57;;;2.20;99.90;;;;;;5036180;28;20475;-61
2022/11/27 10:09:08;;;;;;;10.97;6.33;;;2.20;99.90;;;;;;5037488;28;20522;-61
2022/11/27 10:11:34;;;;;;;11.17;6.67;;;2.30;99.90;;;;;;5038855;28;20435;-59
2022/11/27 10:14:09;;;;;;;10.07;7.20;;;2.30;99.90;;;;;;5037792;28;20928;-60
2022/11/27 10:17:00;;;;;;;9.33;6.20;;;2.30;99.90;;;;;;5029521;28;20186;-60
2022/11/27 10:19:48;;;;;;;11.87;6.60;;;2.40;99.90;;;;;;5037035;28;20467;-60
2022/11/27 10:22:43;;;;;;;13.80;6.17;;;2.50;99.90;;;;;;5038542;28;20437;-61
2022/11/27 10:25:27;;;;;;;10.10;5.90;;;2.60;99.90;;;;;;5036194;28;20426;-60
2022/11/27 10:27:56;;;;;;;10.23;6.80;;;2.60;99.90;;;;;;5040096;28;20495;-60
2022/11/27 10:30:21;;;;;;;11.87;6.60;;;2.70;99.90;;;;;;5038792;28;20447;-61
2022/11/27 10:32:53;;;;;;;11.03;6.37;;;2.70;99.90;;;;;;5041788;28;20514;-60
2022/11/27 10:35:22;;;;;;;11.20;7.47;;;2.80;99.90;;;;;;5044495;28;20425;-59
2022/11/27 10:37:55;;;;;;;11.00;7.83;;;2.80;99.90;;;;;;5044542;28;20457;-65
2022/11/27 10:40:30;;;;;;;15.57;7.40;;;2.90;99.90;;;;;;5038521;28;20431;-60
2022/11/27 10:43:09;;;;;;;11.10;7.03;;;3.00;99.90;;;;;;5039743;28;20685;-59
2022/11/27 10:45:48;;;;;;;12.07;6.90;;;3.00;99.90;;;;;;5039670;28;20450;-59
2022/11/27 10:48:15;;;;;;;14.73;7.83;;;3.10;99.90;;;;;;5034288;28;20454;-59
2022/11/27 10:50:42;;;;;;;14.20;8.63;;;3.20;99.90;;;;;;5042287;28;20444;-61
2022/11/27 10:53:13;;;;;;;11.90;7.83;;;3.30;99.90;;;;;;5041785;28;20434;-63
2022/11/27 10:56:01;;;;;;;16.30;8.23;;;3.30;99.90;;;;;;5041327;28;20476;-61
2022/11/27 10:58:35;;;;;;;12.13;7.90;;;3.40;99.90;;;;;;5036354;28;20474;-64
2022/11/27 11:01:09;;;;;;;15.03;9.00;;;3.40;99.90;;;;;;5039674;28;20835;-60
2022/11/27 11:03:36;;;;;;;16.90;10.67;;;3.40;99.90;;;;;;5040307;28;20449;-60
2022/11/27 11:06:07;;;;;;;14.30;9.20;;;3.40;99.90;;;;;;5041460;28;20454;-60
2022/11/27 11:08:34;;;;;;;16.43;9.20;;;3.30;99.90;;;;;;5037282;28;20442;-60
2022/11/27 11:11:02;;;;;;;17.23;9.53;;;3.40;99.90;;;;;;5037011;28;20924;-61
2022/11/27 11:13:40;;;;;;;13.90;8.67;;;3.40;99.90;;;;;;5022387;28;20884;-59
2022/11/27 11:16:06;;;;;;;17.30;9.00;;;3.50;99.90;;;;;;5022968;28;20989;-60
2022/11/27 11:18:45;;;;;;;14.00;9.03;;;3.60;99.90;;;;;;5020355;28;20518;-59
2022/11/27 11:21:30;;;;;;;19.30;10.67;;;3.60;99.90;;;;;;5021266;28;20179;-60
2022/11/27 11:24:02;;;;;;;20.50;10.47;;;3.60;99.90;;;;;;5021069;28;20442;-59
2022/11/27 11:26:49;;;;;;;20.40;11.13;;;3.70;99.90;;;;;;5001370;28;21152;-61
2022/11/27 11:29:29;;;;;;;17.47;10.13;;;3.70;99.90;;;;;;5022254;28;21478;-59
2022/11/27 11:32:00;;;;;;;16.07;8.80;;;3.70;99.90;;;;;;5001862;28;21336;-59
2022/11/27 11:34:28;;;;;;;21.23;10.17;;;3.80;99.90;;;;;;5014537;28;20433;-59
2022/11/27 11:37:06;;;;;;;19.43;10.43;;;3.80;99.90;;;;;;5020935;28;20636;-59
2022/11/27 11:39:47;;;;;;;18.47;10.00;;;3.90;99.90;;;;;;5020284;28;20453;-60
2022/11/27 11:42:22;;;;;;;14.33;8.90;;;3.90;99.90;;;;;;5005791;28;20534;-61
2022/11/27 11:45:03;;;;;;;18.07;10.23;;;3.90;99.90;;;;;;5020226;28;20437;-61
2022/11/27 11:47:29;;;;;;;15.80;9.10;;;4.00;99.90;;;;;;5016911;28;20503;-62
2022/11/27 11:49:56;;;;;;;18.80;9.60;;;4.20;99.90;;;;;;5016394;28;20461;-59
2022/11/27 11:52:33;;;;;;;18.00;9.63;;;4.40;99.90;;;;;;5020626;28;20186;-61
2022/11/27 11:55:34;;;;;;;20.67;10.70;;;4.50;99.90;;;;;;5019541;28;20506;-60
2022/11/27 11:58:39;;;;;;;15.90;10.27;;;4.50;99.90;;;;;;5022883;28;20465;-60
2022/11/27 12:01:20;;;;;;;16.30;9.07;;;4.60;99.90;;;;;;5017342;28;20419;-60
2022/11/27 12:04:11;;;;;;;17.30;10.40;;;4.60;99.90;;;;;;5020706;28;20871;-60
2022/11/27 12:07:01;;;;;;;18.20;10.40;;;4.60;99.90;;;;;;5007772;28;20455;-60
2022/11/27 12:09:53;;;;;;;19.93;10.30;;;4.60;99.90;;;;;;5017620;28;20442;-60
2022/11/27 12:12:33;;;;;;;18.20;10.90;;;4.60;99.90;;;;;;5018025;28;20435;-58
2022/11/27 12:15:02;;;;;;;14.60;9.20;;;4.60;99.90;;;;;;5011183;28;20418;-60
2022/11/27 12:17:52;;;;;;;17.67;9.80;;;4.60;99.90;;;;;;5023688;28;21028;-60
2022/11/27 12:20:24;;;;;;;28.03;12.30;;;4.70;99.90;;;;;;5012413;28;20425;-61
2022/11/27 12:23:07;;;;;;;18.20;10.80;;;4.70;99.90;;;;;;5027671;28;20426;-60
2022/11/27 12:25:44;;;;;;;17.10;10.60;;;4.60;99.90;;;;;;5005114;28;20465;-61
2022/11/27 12:28:28;;;;;;;22.70;11.77;;;4.70;99.90;;;;;;5019306;28;20446;-58
2022/11/27 12:31:04;;;;;;;23.20;11.50;;;4.60;99.90;;;;;;5023284;28;20425;-60
2022/11/27 12:33:44;;;;;;;17.30;10.20;;;4.50;99.90;;;;;;5020475;28;22672;-60
2022/11/27 12:36:19;;;;;;;17.10;10.07;;;4.50;99.90;;;;;;5018351;28;20453;-61
2022/11/27 12:38:50;;;;;;;18.83;9.60;;;4.40;99.90;;;;;;5023330;28;20452;-61
2022/11/27 12:41:38;;;;;;;19.47;10.37;;;4.40;99.90;;;;;;5027719;28;20434;-60
2022/11/27 12:44:22;;;;;;;14.93;9.73;;;4.40;99.90;;;;;;5017706;28;20422;-59
2022/11/27 12:47:01;;;;;;;19.93;10.20;;;4.30;99.90;;;;;;5003642;28;22313;-60
2022/11/27 12:49:47;;;;;;;17.17;10.67;;;4.30;99.90;;;;;;5027874;28;20437;-61
2022/11/27 12:52:30;;;;;;;16.97;10.00;;;4.20;99.90;;;;;;5026977;28;21025;-60
2022/11/27 12:55:16;;;;;;;16.30;10.17;;;4.10;99.90;;;;;;5006115;28;20423;-61
2022/11/27 12:57:53;;;;;;;21.23;11.03;;;4.00;99.90;;;;;;5008001;28;20445;-60